Decoded Metar for SBGO (GOIANIA in BRAZIL) (IATA:GYN) | Meteo·Mobile Aviation Weather
aviador You're here:

SBGO Decoded Metar

GOIANIA in BRAZIL
Report Time2018-09-22 14:00:00
UTC Time2018-09-22 14:36:05
Flight Rules vfr VFR
Wind140° at 07 kt
W.Decomp.*RWY 14: 6.7 kt HW 2.2 kt RCW
W.Rank140° ranks 2
Current wind is above 140° avg. (5.3)
Visibility9999 m
Phenomena:N/A
Clouds:Few 035 Hf
Expected CloudBase > 6,000 ft AGL from Temp-Dew spread
CeilingNone
Temp31°C (ISA +21)
Dew Point16°C (40% RH)
Heat Index30.9°C
AAT30.4°C
QNH1017 hPa
Density Alt4,941 ft
Elevation2,451 ft
Report Wrong Elevation
Raw Report
METAR SBGO 221400Z 14007KT 9999 FEW035 31/16 Q1017=

Extra information for SBGO:More info

Metar Taf Metar & Taf Last 4 Metars F.Rules Stats Wind Profile Meteogram Temp Stats Airport Information Weather charts Add Link Nearby VenuesMetar ALERT Operation Metar Decoded Social comments